Time;durP1;ratioP1;P1;durP2;ratioP2;P2;SDS_P1;SDS_P2;PMS_P1;PMS_P2;Temp;Humidity;BMP_temperature;BMP_pressure;BME280_temperature;BME280_humidity;BME280_pressure;Samples;Min_cycle;Max_cycle;Signal;HPM_P1;HPM_P2
2022/07/23 04:01:42;;;;;;;6.00;5.60;;;23.30;99.90;;;;;;5392903;23;20588;-64
2022/07/23 04:04:09;;;;;;;6.47;5.87;;;23.30;99.90;;;;;;4975959;28;20455;-63
2022/07/23 04:06:36;;;;;;;6.33;5.83;;;23.30;99.90;;;;;;4975949;28;20455;-63
2022/07/23 04:09:03;;;;;;;6.43;6.03;;;23.30;99.90;;;;;;4975852;28;20509;-64
2022/07/23 04:11:30;;;;;;;6.27;5.73;;;23.40;99.90;;;;;;4975818;28;20478;-64
2022/07/23 04:13:56;;;;;;;6.30;5.90;;;23.40;99.90;;;;;;4975795;28;20493;-64
2022/07/23 04:16:23;;;;;;;6.20;5.80;;;23.40;99.90;;;;;;4975769;28;20510;-64
2022/07/23 04:18:51;;;;;;;6.60;6.20;;;23.50;99.90;;;;;;4975740;28;20458;-64
2022/07/23 04:21:18;;;;;;;6.90;6.50;;;23.50;99.90;;;;;;4975622;28;20486;-64
2022/07/23 04:23:44;;;;;;;8.33;6.20;;;23.50;99.90;;;;;;4975798;28;20501;-64
2022/07/23 04:26:11;;;;;;;6.10;5.60;;;23.60;99.90;;;;;;4975811;28;20851;-64
2022/07/23 04:28:38;;;;;;;6.33;5.83;;;23.60;99.90;;;;;;4975697;28;20458;-64
2022/07/23 04:31:05;;;;;;;6.47;5.90;;;23.60;99.90;;;;;;4975592;28;20475;-64
2022/07/23 04:33:31;;;;;;;6.10;5.70;;;23.60;99.90;;;;;;4975627;28;20845;-63
2022/07/23 04:36:00;;;;;;;6.20;5.70;;;23.60;99.90;;;;;;4975386;28;20465;-65
2022/07/23 04:38:26;;;;;;;7.17;6.70;;;23.60;99.90;;;;;;4975961;28;20465;-65
2022/07/23 04:40:53;;;;;;;7.40;6.23;;;23.70;99.90;;;;;;4986695;28;20485;-64
2022/07/23 04:43:20;;;;;;;6.53;5.93;;;23.70;99.90;;;;;;4979234;28;20454;-64
2022/07/23 04:45:47;;;;;;;6.40;6.00;;;23.80;99.90;;;;;;4975530;28;20819;-64
2022/07/23 04:48:13;;;;;;;7.10;6.60;;;23.80;99.90;;;;;;4975731;28;20458;-64
2022/07/23 04:50:40;;;;;;;6.50;6.00;;;23.80;99.90;;;;;;4975690;28;20896;-65
2022/07/23 04:53:08;;;;;;;7.23;6.63;;;23.90;99.90;;;;;;4974987;28;20835;-64
2022/07/23 04:55:35;;;;;;;6.43;6.10;;;24.00;99.90;;;;;;4975028;28;20513;-64
2022/07/23 04:58:02;;;;;;;6.53;6.00;;;24.00;99.90;;;;;;4975104;28;20462;-65
2022/07/23 05:00:28;;;;;;;6.10;5.80;;;24.10;99.90;;;;;;4974807;28;20953;-64
2022/07/23 05:02:55;;;;;;;7.10;6.60;;;24.10;99.90;;;;;;4974824;28;20439;-65
2022/07/23 05:05:22;;;;;;;6.90;6.50;;;24.20;99.90;;;;;;4975069;28;20455;-65
2022/07/23 05:07:48;;;;;;;6.97;6.37;;;24.20;99.90;;;;;;4975028;28;20459;-64
2022/07/23 05:10:17;;;;;;;6.47;6.07;;;24.30;99.90;;;;;;4975026;28;20458;-64
2022/07/23 05:12:44;;;;;;;7.00;6.50;;;24.40;99.90;;;;;;4974597;28;20862;-64
2022/07/23 05:15:10;;;;;;;6.47;5.90;;;24.40;99.90;;;;;;4974572;28;20820;-64
2022/07/23 05:17:37;;;;;;;6.73;6.33;;;24.50;99.90;;;;;;4974930;28;20513;-64
2022/07/23 05:20:04;;;;;;;7.80;7.30;;;24.50;99.90;;;;;;4974697;28;20454;-64
2022/07/23 05:22:31;;;;;;;6.30;5.90;;;24.60;99.90;;;;;;4974674;28;20517;-64
2022/07/23 05:24:58;;;;;;;6.73;6.33;;;24.70;99.90;;;;;;4975108;28;20461;-64
2022/07/23 05:27:26;;;;;;;6.53;6.13;;;24.80;99.90;;;;;;4974523;28;20457;-64
2022/07/23 05:29:53;;;;;;;7.10;6.60;;;24.90;99.90;;;;;;4974951;28;20455;-64
2022/07/23 05:32:20;;;;;;;6.50;6.00;;;25.00;99.90;;;;;;4974834;28;20485;-64
2022/07/23 05:34:46;;;;;;;6.17;5.77;;;25.20;99.90;;;;;;4975028;28;20485;-64
2022/07/23 05:37:13;;;;;;;6.50;6.10;;;25.20;99.90;;;;;;4974843;28;20454;-64
2022/07/23 05:39:40;;;;;;;6.50;6.07;;;25.30;99.90;;;;;;4974357;28;20458;-64
2022/07/23 05:42:07;;;;;;;6.53;6.10;;;25.30;99.90;;;;;;4974801;28;20478;-64
2022/07/23 05:44:35;;;;;;;6.80;6.23;;;25.30;99.90;;;;;;4974844;28;20509;-64
2022/07/23 05:47:02;;;;;;;7.03;6.53;;;25.40;99.90;;;;;;4974666;28;20816;-64
2022/07/23 05:49:29;;;;;;;7.00;6.60;;;25.40;99.90;;;;;;4974692;28;20820;-63
2022/07/23 05:51:56;;;;;;;7.27;6.80;;;25.40;99.90;;;;;;4974320;28;20981;-64
2022/07/23 05:54:23;;;;;;;7.80;7.10;;;25.30;99.90;;;;;;4976530;28;20485;-64
2022/07/23 05:56:50;;;;;;;7.20;6.70;;;25.30;99.90;;;;;;4978623;28;20810;-64
2022/07/23 05:59:16;;;;;;;7.43;6.90;;;25.30;99.90;;;;;;4978036;28;20458;-64
2022/07/23 06:01:44;;;;;;;7.40;6.80;;;25.30;99.90;;;;;;4977848;28;20490;-64
2022/07/23 06:04:11;;;;;;;6.93;6.20;;;25.30;99.90;;;;;;4977776;28;20822;-64
2022/07/23 06:06:38;;;;;;;6.60;6.10;;;25.20;99.90;;;;;;4978366;28;20461;-64
2022/07/23 06:09:05;;;;;;;7.17;6.47;;;25.20;99.90;;;;;;4979571;28;20455;-67
2022/07/23 06:11:31;;;;;;;7.13;6.63;;;25.20;99.90;;;;;;4978768;28;20478;-67
2022/07/23 06:13:58;;;;;;;7.33;6.83;;;25.10;99.90;;;;;;4977867;28;20993;-67
2022/07/23 06:16:25;;;;;;;8.13;7.50;;;25.00;99.90;;;;;;4978017;28;20459;-66
2022/07/23 06:18:53;;;;;;;6.80;6.40;;;25.00;99.90;;;;;;4977924;28;20462;-66
2022/07/23 06:21:20;;;;;;;7.80;7.20;;;24.90;99.90;;;;;;4977838;28;20550;-67
2022/07/23 06:23:46;;;;;;;7.27;6.67;;;24.90;99.90;;;;;;4977825;28;20462;-67
2022/07/23 06:26:13;;;;;;;7.23;6.73;;;24.80;99.90;;;;;;4977655;28;20455;-67
2022/07/23 06:28:40;;;;;;;8.13;7.33;;;24.90;99.90;;;;;;4977907;28;20455;-67
2022/07/23 06:31:07;;;;;;;7.40;6.93;;;24.90;99.90;;;;;;4977842;28;20478;-67
2022/07/23 06:33:34;;;;;;;8.07;7.37;;;24.90;99.90;;;;;;4977558;28;20528;-66
2022/07/23 06:36:02;;;;;;;7.47;6.83;;;24.90;99.90;;;;;;4977555;28;20492;-67
2022/07/23 06:38:29;;;;;;;8.00;7.40;;;25.20;99.90;;;;;;4977559;28;20510;-67
2022/07/23 06:40:55;;;;;;;6.80;6.30;;;25.40;99.90;;;;;;4977383;28;20510;-66
2022/07/23 06:43:22;;;;;;;7.53;6.93;;;25.40;99.90;;;;;;4977416;28;20459;-66
2022/07/23 06:45:49;;;;;;;8.07;7.27;;;25.70;99.90;;;;;;4977674;28;20531;-66
2022/07/23 06:48:15;;;;;;;8.20;7.37;;;26.00;99.90;;;;;;4976942;28;20459;-67
2022/07/23 06:50:42;;;;;;;8.20;7.30;;;26.10;99.90;;;;;;4977811;28;20483;-67
2022/07/23 06:53:10;;;;;;;8.93;7.10;;;26.20;99.90;;;;;;4977372;28;20455;-66
2022/07/23 06:55:38;;;;;;;7.67;7.07;;;26.10;99.10;;;;;;4977271;28;20884;-66
2022/07/23 06:58:05;;;;;;;8.13;7.53;;;25.90;99.40;;;;;;4977392;28;20457;-66
2022/07/23 07:00:32;;;;;;;8.60;7.90;;;25.80;99.90;;;;;;4977077;28;20491;-66
2022/07/23 07:02:59;;;;;;;8.33;7.70;;;25.70;99.90;;;;;;4977116;28;20445;-66
2022/07/23 07:05:27;;;;;;;7.93;7.33;;;25.40;99.90;;;;;;4976467;28;20466;-66
2022/07/23 07:07:54;;;;;;;8.13;7.53;;;25.20;99.90;;;;;;4977143;28;20454;-68
2022/07/23 07:10:22;;;;;;;8.23;7.70;;;25.00;99.90;;;;;;4976944;28;20458;-66
2022/07/23 07:12:49;;;;;;;7.73;7.13;;;24.70;99.90;;;;;;4976921;28;20458;-66
2022/07/23 07:15:16;;;;;;;8.73;7.93;;;24.60;99.90;;;;;;4976930;28;20843;-66
2022/07/23 07:17:43;;;;;;;8.50;7.63;;;24.30;99.90;;;;;;4977026;28;20459;-66
2022/07/23 07:20:11;;;;;;;9.87;8.07;;;24.00;99.90;;;;;;4976936;28;20459;-66
2022/07/23 07:22:37;;;;;;;9.30;8.50;;;23.90;99.90;;;;;;4976917;28;20549;-67
2022/07/23 07:25:05;;;;;;;7.83;7.23;;;23.70;99.90;;;;;;4976877;28;20509;-66
2022/07/23 07:27:33;;;;;;;8.60;7.93;;;23.50;99.90;;;;;;4976808;28;20458;-66
2022/07/23 07:30:00;;;;;;;9.03;8.33;;;23.30;99.90;;;;;;4976677;28;20466;-66
2022/07/23 07:32:27;;;;;;;8.67;7.87;;;23.20;99.90;;;;;;4977458;28;20486;-67
2022/07/23 07:34:53;;;;;;;9.77;8.97;;;23.20;99.90;;;;;;4977542;28;21068;-67
2022/07/23 07:37:20;;;;;;;9.17;8.43;;;23.00;99.90;;;;;;4978087;28;20469;-67
2022/07/23 07:39:47;;;;;;;9.70;8.80;;;22.90;99.90;;;;;;4981124;28;20457;-67
2022/07/23 07:42:13;;;;;;;9.60;8.80;;;22.90;99.90;;;;;;4980049;28;20973;-67
2022/07/23 07:44:41;;;;;;;10.03;9.13;;;23.00;99.90;;;;;;4977790;28;20451;-67
2022/07/23 07:47:08;;;;;;;10.10;9.30;;;23.10;99.90;;;;;;4976734;28;20458;-66
2022/07/23 07:49:35;;;;;;;10.90;9.90;;;23.20;99.90;;;;;;4976844;28;20532;-66
2022/07/23 07:52:02;;;;;;;10.23;9.30;;;23.40;99.90;;;;;;4976050;28;20467;-66
2022/07/23 07:54:28;;;;;;;12.47;11.43;;;23.60;99.90;;;;;;4976767;28;20486;-66
2022/07/23 07:56:55;;;;;;;10.37;9.33;;;24.00;99.90;;;;;;4976246;28;20517;-66
2022/07/23 07:59:22;;;;;;;8.23;7.53;;;24.40;99.90;;;;;;4976813;28;20517;-66
2022/07/23 08:01:50;;;;;;;8.70;8.00;;;24.50;99.90;;;;;;4977057;28;20490;-66
2022/07/23 08:04:17;;;;;;;8.63;7.83;;;24.70;99.90;;;;;;4976582;28;20455;-66
2022/07/23 08:06:44;;;;;;;8.70;8.00;;;24.70;99.90;;;;;;4975704;28;21009;-65
2022/07/23 08:09:11;;;;;;;8.57;8.00;;;24.60;99.90;;;;;;4976046;28;20443;-66
2022/07/23 08:11:37;;;;;;;8.47;7.77;;;24.50;99.90;;;;;;4975895;28;20478;-66
2022/07/23 08:14:04;;;;;;;8.93;8.30;;;24.50;99.90;;;;;;4976032;28;20481;-66
2022/07/23 08:16:31;;;;;;;8.40;7.73;;;24.40;99.90;;;;;;4975970;28;21008;-66
2022/07/23 08:18:59;;;;;;;9.47;8.57;;;24.50;99.90;;;;;;4975285;28;20458;-65
2022/07/23 08:21:26;;;;;;;7.60;7.10;;;24.50;99.90;;;;;;4976622;28;20482;-66
2022/07/23 08:23:52;;;;;;;8.00;7.50;;;24.40;99.90;;;;;;4975943;28;20454;-66
2022/07/23 08:26:19;;;;;;;9.43;8.57;;;24.40;99.90;;;;;;4975787;28;20465;-66
2022/07/23 08:28:46;;;;;;;9.07;8.23;;;24.10;99.90;;;;;;4975563;28;20458;-66
2022/07/23 08:31:12;;;;;;;7.97;7.37;;;24.10;99.90;;;;;;4975515;28;20529;-66
2022/07/23 08:33:39;;;;;;;8.07;7.27;;;24.10;99.90;;;;;;4975825;28;20454;-66
2022/07/23 08:36:09;;;;;;;8.57;7.87;;;24.20;99.90;;;;;;4975532;28;20458;-66
2022/07/23 08:38:35;;;;;;;8.73;8.00;;;24.40;99.90;;;;;;4975604;28;20459;-66
2022/07/23 08:41:04;;;;;;;8.83;8.00;;;24.70;99.90;;;;;;4975493;28;20558;-66
2022/07/23 08:43:32;;;;;;;7.60;7.10;;;24.80;99.90;;;;;;4975679;28;20454;-66
2022/07/23 08:46:01;;;;;;;11.13;8.50;;;24.80;99.90;;;;;;4976035;28;20461;-66
2022/07/23 08:48:29;;;;;;;9.00;8.20;;;24.80;99.90;;;;;;4975484;28;20498;-66
2022/07/23 08:50:58;;;;;;;7.80;7.20;;;24.80;99.90;;;;;;4975315;28;20478;-66
2022/07/23 08:53:27;;;;;;;7.30;6.80;;;25.10;99.90;;;;;;4975533;28;20459;-66
2022/07/23 08:55:56;;;;;;;7.50;6.87;;;25.40;99.90;;;;;;4975612;28;20482;-65
2022/07/23 08:58:24;;;;;;;6.70;6.17;;;26.00;99.90;;;;;;4975416;28;20481;-64
2022/07/23 09:00:50;;;;;;;7.77;7.17;;;26.90;99.90;;;;;;4974906;28;20494;-64
2022/07/23 09:03:19;;;;;;;7.17;6.70;;;27.60;99.90;;;;;;4974986;28;20481;-65
2022/07/23 09:05:46;;;;;;;6.20;5.67;;;28.30;99.90;;;;;;4975235;28;20458;-65
2022/07/23 09:08:14;;;;;;;5.20;4.90;;;29.30;99.90;;;;;;4974970;28;20465;-65
2022/07/23 09:10:48;;;;;;;6.13;5.83;;;30.40;97.40;;;;;;4974752;28;20710;-65
2022/07/23 09:13:36;;;;;;;6.03;5.63;;;31.20;93.70;;;;;;4975024;28;20533;-65
2022/07/23 09:16:06;;;;;;;6.80;6.20;;;31.60;92.50;;;;;;4975019;28;20522;-68
2022/07/23 09:18:39;;;;;;;6.47;5.97;;;31.70;91.40;;;;;;4975165;28;20449;-69
2022/07/23 09:21:24;;;;;;;6.60;6.10;;;31.90;90.00;;;;;;4975200;28;20479;-69
2022/07/23 09:23:54;;;;;;;7.80;7.30;;;31.70;88.00;;;;;;4974908;28;20788;-69
2022/07/23 09:26:42;;;;;;;6.93;6.43;;;31.20;87.30;;;;;;4974742;28;20451;-69
2022/07/23 09:29:11;;;;;;;6.10;5.70;;;30.90;88.70;;;;;;4976488;28;20442;-69
2022/07/23 09:31:48;;;;;;;6.60;6.20;;;30.60;89.50;;;;;;4978682;28;20474;-69
2022/07/23 09:34:18;;;;;;;5.80;5.50;;;30.60;90.40;;;;;;4978740;28;20473;-69
2022/07/23 09:36:45;;;;;;;5.77;5.37;;;30.30;91.00;;;;;;4978601;28;20937;-69
2022/07/23 09:39:13;;;;;;;5.53;5.17;;;30.70;87.70;;;;;;4978922;28;20458;-70
2022/07/23 09:41:43;;;;;;;5.60;5.10;;;31.20;85.90;;;;;;4979065;28;20474;-70
2022/07/23 09:44:16;;;;;;;5.00;4.70;;;31.90;81.20;;;;;;4978842;28;20810;-70
2022/07/23 09:46:44;;;;;;;5.60;5.30;;;32.40;76.30;;;;;;4978604;28;20447;-70
2022/07/23 09:49:19;;;;;;;5.73;5.27;;;32.90;75.20;;;;;;4978639;28;20477;-70
2022/07/23 09:51:48;;;;;;;5.30;4.80;;;33.40;72.10;;;;;;4978322;28;20469;-70
2022/07/23 09:54:28;;;;;;;5.80;5.40;;;34.10;70.00;;;;;;4978245;28;20537;-70
2022/07/23 09:56:57;;;;;;;5.90;5.60;;;34.80;68.10;;;;;;4978385;28;20444;-70
2022/07/23 09:59:26;;;;;;;6.10;5.60;;;34.50;68.50;;;;;;4979158;28;20465;-70
2022/07/23 10:01:56;;;;;;;6.40;5.90;;;34.70;69.90;;;;;;4978606;28;20496;-70
2022/07/23 10:04:23;;;;;;;6.10;5.70;;;35.30;65.50;;;;;;4978990;28;20450;-70
2022/07/23 10:06:54;;;;;;;6.40;6.00;;;35.90;63.70;;;;;;4978231;28;20457;-70
2022/07/23 10:09:24;;;;;;;5.80;5.40;;;35.70;63.50;;;;;;4978384;28;20777;-70
2022/07/23 10:11:52;;;;;;;6.87;6.17;;;35.80;63.80;;;;;;4978238;28;20473;-70
2022/07/23 10:14:21;;;;;;;6.20;5.60;;;35.50;65.10;;;;;;4977974;28;20478;-69
2022/07/23 10:16:49;;;;;;;6.17;5.77;;;35.60;65.90;;;;;;4977668;28;21033;-69
2022/07/23 10:19:16;;;;;;;5.77;5.43;;;35.40;66.30;;;;;;4978153;28;20903;-69
2022/07/23 10:21:47;;;;;;;6.50;6.10;;;35.80;64.70;;;;;;4977581;28;21035;-69
2022/07/23 10:24:24;;;;;;;6.73;6.23;;;36.20;61.80;;;;;;4978563;28;20439;-70
2022/07/23 10:26:59;;;;;;;6.73;6.23;;;36.30;62.40;;;;;;4978163;28;20437;-70
2022/07/23 10:29:41;;;;;;;6.70;6.10;;;36.60;63.00;;;;;;4978079;28;20505;-70
2022/07/23 10:32:22;;;;;;;5.63;5.33;;;37.00;60.40;;;;;;4978725;28;20477;-71
2022/07/23 10:34:56;;;;;;;6.00;5.60;;;36.90;61.70;;;;;;4978062;28;20549;-70
2022/07/23 10:37:26;;;;;;;6.10;5.70;;;36.80;59.20;;;;;;4977811;28;20476;-70
2022/07/23 10:40:11;;;;;;;6.77;6.20;;;36.30;59.40;;;;;;4977266;28;20445;-70
2022/07/23 10:42:38;;;;;;;6.37;5.90;;;36.10;60.00;;;;;;4977458;28;20478;-71
2022/07/23 10:45:25;;;;;;;6.83;6.43;;;35.70;60.30;;;;;;4977760;28;20486;-70
2022/07/23 10:47:52;;;;;;;6.37;6.07;;;35.70;61.90;;;;;;4977806;28;20438;-70
2022/07/23 10:50:22;;;;;;;6.87;6.37;;;35.10;61.30;;;;;;4977884;28;20453;-70
2022/07/23 10:53:17;;;;;;;6.03;5.73;;;34.60;62.20;;;;;;4977879;28;20938;-70
2022/07/23 10:55:49;;;;;;;6.60;6.10;;;34.50;63.10;;;;;;4977978;28;20497;-70
2022/07/23 10:58:44;;;;;;;6.13;5.70;;;34.60;64.80;;;;;;4977672;28;20442;-70
2022/07/23 11:01:34;;;;;;;6.83;6.33;;;34.20;61.80;;;;;;4977007;28;20540;-70
2022/07/23 11:04:00;;;;;;;6.37;5.87;;;34.10;62.80;;;;;;4978375;28;20470;-69
2022/07/23 11:07:01;;;;;;;5.70;5.30;;;33.60;62.10;;;;;;4977021;28;20941;-70
2022/07/23 11:09:29;;;;;;;5.90;5.40;;;33.30;62.50;;;;;;4979161;28;20481;-69
2022/07/23 11:12:28;;;;;;;7.40;6.80;;;33.50;59.80;;;;;;4997364;28;20479;-70
2022/07/23 11:15:05;;;;;;;5.57;5.27;;;33.10;60.00;;;;;;4992966;28;20474;-69
2022/07/23 11:17:35;;;;;;;6.70;6.20;;;32.80;63.40;;;;;;4977229;28;20505;-70
2022/07/23 11:20:19;;;;;;;6.00;5.63;;;32.80;64.30;;;;;;4976945;28;20465;-70
2022/07/23 11:22:51;;;;;;;6.10;5.70;;;32.80;63.00;;;;;;4977027;28;20438;-70
2022/07/23 11:25:34;;;;;;;7.67;7.00;;;33.00;63.90;;;;;;4977489;28;20465;-70
2022/07/23 11:28:14;;;;;;;5.43;5.13;;;32.70;65.10;;;;;;4976985;28;20461;-70
2022/07/23 11:30:44;;;;;;;12.93;11.90;;;32.50;63.30;;;;;;4976714;28;20487;-69
2022/07/23 11:33:21;;;;;;;5.57;5.27;;;31.70;64.40;;;;;;4976704;28;20867;-69
2022/07/23 11:36:00;;;;;;;6.47;6.07;;;31.70;65.60;;;;;;4976787;28;20902;-69
2022/07/23 11:38:26;;;;;;;6.70;6.20;;;31.40;65.60;;;;;;4976693;28;20950;-70
2022/07/23 11:40:56;;;;;;;6.00;5.60;;;31.10;67.00;;;;;;4980122;28;20873;-69
2022/07/23 11:43:23;;;;;;;6.53;6.13;;;31.10;67.70;;;;;;4977463;28;20450;-69
2022/07/23 11:45:52;;;;;;;6.27;5.87;;;31.10;67.90;;;;;;4976435;28;20462;-69
2022/07/23 11:48:22;;;;;;;6.37;5.97;;;30.90;68.30;;;;;;4976179;28;20961;-69
2022/07/23 11:50:49;;;;;;;6.37;5.80;;;31.00;69.50;;;;;;4976331;28;20478;-69
2022/07/23 11:53:23;;;;;;;6.43;6.03;;;31.10;67.20;;;;;;4975888;28;20852;-69
2022/07/23 11:55:51;;;;;;;6.63;6.20;;;31.00;68.10;;;;;;4976057;28;20557;-69
2022/07/23 11:58:18;;;;;;;6.80;5.80;;;31.20;70.50;;;;;;4976413;28;20458;-69
2022/07/23 12:00:45;;;;;;;6.50;6.10;;;31.60;67.40;;;;;;4976026;28;20487;-69
2022/07/23 12:03:11;;;;;;;6.80;6.20;;;31.80;68.30;;;;;;4976545;28;20465;-69
2022/07/23 12:05:40;;;;;;;6.57;6.07;;;32.00;68.80;;;;;;4976002;28;20454;-70
2022/07/23 12:08:09;;;;;;;6.67;6.17;;;32.20;67.00;;;;;;4976422;28;20443;-70
2022/07/23 12:10:38;;;;;;;7.20;6.70;;;32.00;68.50;;;;;;4976293;28;20474;-70
2022/07/23 12:13:07;;;;;;;6.60;6.20;;;31.90;68.90;;;;;;4976004;28;20533;-69
2022/07/23 12:15:38;;;;;;;6.40;5.90;;;31.90;69.20;;;;;;4975830;28;20485;-69
2022/07/23 12:18:07;;;;;;;6.50;6.10;;;31.80;70.80;;;;;;4975847;28;20438;-70
2022/07/23 12:20:35;;;;;;;7.33;6.73;;;31.70;71.20;;;;;;4975865;28;20458;-70
2022/07/23 12:23:07;;;;;;;7.10;6.43;;;31.40;71.30;;;;;;4975609;28;20942;-70
2022/07/23 12:25:35;;;;;;;7.53;6.83;;;31.20;72.30;;;;;;4975508;28;20448;-70
2022/07/23 12:28:06;;;;;;;7.03;6.63;;;31.30;72.40;;;;;;4975932;28;20454;-69
2022/07/23 12:30:34;;;;;;;6.87;6.37;;;31.40;72.40;;;;;;4976015;28;20443;-69
2022/07/23 12:33:01;;;;;;;7.20;6.73;;;31.40;71.20;;;;;;4976202;28;20431;-69
2022/07/23 12:35:34;;;;;;;7.10;6.60;;;31.60;73.10;;;;;;4975558;28;20477;-69
2022/07/23 12:38:04;;;;;;;6.63;6.23;;;31.80;70.40;;;;;;4975642;28;20439;-70
2022/07/23 12:40:34;;;;;;;8.00;7.30;;;31.60;70.50;;;;;;4975468;28;20443;-70
2022/07/23 12:43:03;;;;;;;7.27;6.87;;;31.30;72.00;;;;;;4975567;28;20906;-71
2022/07/23 12:45:45;;;;;;;7.50;7.00;;;31.10;71.10;;;;;;4975723;28;20455;-71
2022/07/23 12:48:21;;;;;;;7.90;7.20;;;31.10;73.70;;;;;;4975435;28;20443;-73
2022/07/23 12:50:53;;;;;;;7.03;6.60;;;31.00;72.10;;;;;;4975550;28;20530;-69
2022/07/23 12:53:23;;;;;;;7.20;6.60;;;30.80;73.20;;;;;;4975439;28;20549;-70
2022/07/23 12:55:50;;;;;;;7.57;7.17;;;30.40;74.20;;;;;;4975502;28;20507;-70
2022/07/23 12:58:19;;;;;;;7.60;7.10;;;30.00;75.00;;;;;;4975272;28;20459;-70
2022/07/23 13:00:58;;;;;;;7.60;7.10;;;29.80;74.20;;;;;;4974645;28;20989;-69
2022/07/23 13:03:27;;;;;;;7.10;6.60;;;29.80;75.40;;;;;;4974540;28;20964;-69
2022/07/23 13:05:55;;;;;;;7.63;7.20;;;30.00;74.10;;;;;;4975132;28;20793;-69
2022/07/23 13:08:24;;;;;;;8.70;8.00;;;30.00;74.40;;;;;;4974661;28;20857;-69
2022/07/23 13:10:52;;;;;;;6.70;6.30;;;29.90;73.60;;;;;;4975155;28;20475;-69
2022/07/23 13:13:21;;;;;;;7.00;6.40;;;29.90;73.20;;;;;;4975258;28;20451;-69
2022/07/23 13:15:49;;;;;;;7.37;6.87;;;29.90;71.10;;;;;;4975106;28;20482;-70
2022/07/23 13:18:16;;;;;;;6.93;6.53;;;30.10;71.70;;;;;;4974991;28;20458;-69
2022/07/23 13:20:43;;;;;;;7.30;6.77;;;30.00;70.70;;;;;;4974973;28;20597;-69
2022/07/23 13:23:10;;;;;;;6.90;6.40;;;30.20;71.20;;;;;;4975031;28;20466;-69
2022/07/23 13:25:38;;;;;;;8.30;7.60;;;30.30;72.30;;;;;;4974990;28;20501;-69
2022/07/23 13:28:05;;;;;;;8.57;7.97;;;30.30;72.60;;;;;;4974856;28;20473;-69
2022/07/23 13:30:32;;;;;;;8.83;8.10;;;30.40;74.40;;;;;;4974906;28;20454;-69
2022/07/23 13:32:59;;;;;;;8.97;8.17;;;30.60;75.00;;;;;;4974913;28;20461;-70
2022/07/23 13:35:25;;;;;;;7.50;7.00;;;30.80;75.00;;;;;;4975474;28;20478;-69
2022/07/23 13:37:52;;;;;;;8.63;7.93;;;30.90;73.80;;;;;;4975087;28;20454;-70
2022/07/23 13:40:19;;;;;;;8.57;7.90;;;31.00;75.00;;;;;;4974357;28;21049;-69
2022/07/23 13:42:47;;;;;;;8.83;8.17;;;31.20;72.30;;;;;;4974965;28;20839;-70
2022/07/23 13:45:14;;;;;;;9.33;8.60;;;31.20;74.00;;;;;;4974894;28;20953;-70
2022/07/23 13:47:41;;;;;;;8.37;7.77;;;31.40;70.50;;;;;;4974487;28;20821;-70
2022/07/23 13:50:08;;;;;;;8.70;8.20;;;31.50;71.30;;;;;;4974675;28;20466;-69
2022/07/23 13:52:35;;;;;;;8.93;8.30;;;31.60;71.90;;;;;;4974756;28;20486;-69
2022/07/23 13:55:03;;;;;;;8.93;8.27;;;31.40;69.60;;;;;;4974983;28;20462;-69
2022/07/23 13:57:30;;;;;;;8.47;7.97;;;31.60;71.00;;;;;;4975121;28;20990;-70
2022/07/23 13:59:58;;;;;;;7.80;7.23;;;31.50;67.90;;;;;;4974529;28;20454;-69
2022/07/23 14:02:25;;;;;;;8.90;8.10;;;31.50;69.10;;;;;;4974136;28;20517;-69
2022/07/23 14:04:53;;;;;;;7.97;7.47;;;31.60;68.20;;;;;;4975088;28;20493;-70
2022/07/23 14:07:20;;;;;;;7.70;7.10;;;31.60;68.80;;;;;;4974678;28;20462;-69
2022/07/23 14:09:47;;;;;;;8.40;7.60;;;31.70;67.40;;;;;;4974254;28;20837;-70
2022/07/23 14:12:13;;;;;;;7.10;6.67;;;31.70;64.40;;;;;;4975155;28;20483;-69
2022/07/23 14:14:40;;;;;;;7.50;7.00;;;31.80;66.30;;;;;;4974905;28;20461;-69
2022/07/23 14:17:08;;;;;;;7.67;7.23;;;32.00;65.10;;;;;;4977951;28;20482;-70
2022/07/23 14:19:35;;;;;;;8.07;7.47;;;32.30;66.50;;;;;;4977932;28;20463;-70
2022/07/23 14:22:02;;;;;;;7.87;7.47;;;32.40;64.10;;;;;;4977879;28;20478;-70
2022/07/23 14:24:28;;;;;;;7.93;7.40;;;32.40;63.10;;;;;;4977668;28;20458;-68
2022/07/23 14:26:55;;;;;;;7.10;6.60;;;32.50;64.50;;;;;;4977834;28;20458;-69
2022/07/23 14:29:22;;;;;;;7.63;7.13;;;32.40;62.10;;;;;;4977717;28;20458;-70
2022/07/23 14:31:49;;;;;;;7.87;7.23;;;32.30;62.70;;;;;;4977467;28;20474;-70
2022/07/23 14:34:17;;;;;;;7.50;7.07;;;32.10;62.50;;;;;;4977939;28;20517;-68
2022/07/23 14:36:44;;;;;;;8.40;7.80;;;32.30;64.30;;;;;;4978077;28;20569;-76
2022/07/23 14:39:11;;;;;;;8.10;7.50;;;32.20;63.60;;;;;;4978074;28;20454;-73
2022/07/23 14:41:38;;;;;;;9.57;7.67;;;32.00;63.50;;;;;;4977465;28;20478;-73
2022/07/23 14:44:05;;;;;;;8.47;7.83;;;32.00;64.50;;;;;;4977586;28;20462;-69
2022/07/23 14:46:32;;;;;;;8.17;7.40;;;32.00;64.80;;;;;;4977647;28;20454;-69
2022/07/23 14:48:59;;;;;;;8.97;8.27;;;32.00;62.80;;;;;;4978106;28;20454;-70
2022/07/23 14:51:27;;;;;;;8.27;7.73;;;31.90;64.00;;;;;;4977478;28;20886;-68
2022/07/23 14:53:54;;;;;;;8.70;7.90;;;31.80;63.70;;;;;;4977402;28;20458;-71
2022/07/23 14:56:21;;;;;;;8.63;8.03;;;31.70;65.80;;;;;;4977706;28;20462;-72
2022/07/23 14:58:47;;;;;;;8.33;7.73;;;31.60;66.30;;;;;;4987184;28;20455;-73
2022/07/23 15:01:14;;;;;;;8.07;7.47;;;31.40;65.60;;;;;;4997792;28;20478;-73
2022/07/23 15:03:41;;;;;;;8.40;7.70;;;31.20;67.30;;;;;;4978859;28;20535;-69
2022/07/23 15:06:08;;;;;;;8.97;8.20;;;31.00;66.40;;;;;;4977380;28;20461;-68
2022/07/23 15:08:36;;;;;;;8.63;7.90;;;30.80;66.00;;;;;;4976898;28;20454;-69
2022/07/23 15:11:03;;;;;;;9.17;8.37;;;30.70;66.30;;;;;;4976910;28;20525;-69
2022/07/23 15:13:29;;;;;;;9.37;8.67;;;30.50;66.60;;;;;;4977440;28;20451;-72
2022/07/23 15:15:56;;;;;;;8.50;7.90;;;30.40;68.50;;;;;;4976808;28;20912;-70
2022/07/23 15:18:23;;;;;;;7.80;7.30;;;30.40;69.40;;;;;;4976620;28;20462;-71
2022/07/23 15:20:49;;;;;;;8.43;7.83;;;30.40;69.60;;;;;;4976613;28;20475;-69
2022/07/23 15:23:16;;;;;;;8.90;8.30;;;30.60;70.00;;;;;;4976453;28;20481;-70
2022/07/23 15:25:44;;;;;;;8.93;8.33;;;30.80;68.80;;;;;;4976512;28;20459;-67
2022/07/23 15:28:11;;;;;;;7.40;6.80;;;30.90;67.40;;;;;;4976615;28;20455;-66
2022/07/23 15:30:37;;;;;;;9.17;8.37;;;30.90;67.40;;;;;;4976590;28;20505;-70
2022/07/23 15:33:05;;;;;;;8.87;8.17;;;30.90;68.10;;;;;;4976718;28;20486;-70
2022/07/23 15:35:32;;;;;;;9.20;8.60;;;30.90;69.10;;;;;;4976139;28;20459;-69
2022/07/23 15:37:59;;;;;;;8.43;7.90;;;31.00;68.30;;;;;;4976671;28;20489;-71
2022/07/23 15:40:26;;;;;;;9.00;8.40;;;31.00;68.30;;;;;;4976203;28;20529;-70
2022/07/23 15:42:54;;;;;;;8.83;8.23;;;30.70;67.80;;;;;;4979387;28;20505;-68
2022/07/23 15:45:21;;;;;;;8.07;7.50;;;30.50;67.80;;;;;;4978153;28;20447;-71
2022/07/23 15:47:49;;;;;;;8.20;7.60;;;30.60;69.70;;;;;;4976198;28;20450;-71
2022/07/23 15:50:16;;;;;;;7.90;7.40;;;30.70;70.80;;;;;;4976194;28;20455;-70
2022/07/23 15:52:43;;;;;;;8.83;8.00;;;30.70;68.10;;;;;;4976202;28;20454;-70
2022/07/23 15:55:10;;;;;;;8.50;7.90;;;30.70;68.20;;;;;;4976070;28;20455;-70
2022/07/23 15:57:37;;;;;;;8.20;7.70;;;30.70;69.30;;;;;;4975923;28;20486;-70
2022/07/23 16:00:07;;;;;;;7.97;7.47;;;30.70;68.20;;;;;;4975998;28;20826;-70
2022/07/23 16:02:34;;;;;;;8.63;8.03;;;30.80;68.80;;;;;;4976462;28;20515;-70
2022/07/23 16:05:01;;;;;;;8.43;7.67;;;31.00;68.80;;;;;;4975619;28;20458;-72
2022/07/23 16:07:28;;;;;;;9.83;9.03;;;31.10;68.30;;;;;;4975845;28;20454;-70
2022/07/23 16:09:55;;;;;;;10.63;9.53;;;31.20;69.00;;;;;;4975653;28;20509;-71
2022/07/23 16:12:22;;;;;;;10.13;9.27;;;31.20;69.20;;;;;;4975540;28;20483;-70
2022/07/23 16:14:48;;;;;;;8.30;7.70;;;31.20;71.00;;;;;;4975571;28;20938;-71
2022/07/23 16:17:16;;;;;;;7.80;7.40;;;31.10;67.60;;;;;;4975538;28;20941;-71
2022/07/23 16:19:45;;;;;;;8.27;7.57;;;31.10;66.10;;;;;;4975791;28;20451;-69
2022/07/23 16:22:15;;;;;;;9.90;9.30;;;30.80;65.50;;;;;;4975480;28;20478;-69
2022/07/23 16:24:42;;;;;;;9.83;9.10;;;30.40;69.10;;;;;;4975584;28;20458;-69
2022/07/23 16:27:09;;;;;;;10.13;9.20;;;30.20;71.20;;;;;;4975510;28;20461;-70
2022/07/23 16:29:35;;;;;;;9.97;9.37;;;30.00;72.20;;;;;;4975540;28;20455;-72
2022/07/23 16:32:02;;;;;;;9.47;8.73;;;30.00;73.40;;;;;;4975279;28;20510;-73
2022/07/23 16:34:30;;;;;;;9.60;8.90;;;30.00;73.10;;;;;;4976331;28;20469;-71
2022/07/23 16:36:57;;;;;;;9.50;8.87;;;29.90;73.70;;;;;;4975516;28;20482;-67
2022/07/23 16:39:23;;;;;;;10.57;9.87;;;29.90;73.60;;;;;;4974270;28;20863;-69
2022/07/23 16:41:50;;;;;;;10.57;8.73;;;29.80;73.20;;;;;;4975114;28;20470;-69
2022/07/23 16:44:17;;;;;;;10.83;9.73;;;29.90;74.00;;;;;;4974983;28;20462;-69
2022/07/23 16:46:44;;;;;;;10.43;9.63;;;29.90;74.00;;;;;;4975224;28;20884;-69
2022/07/23 16:49:11;;;;;;;10.07;9.23;;;29.80;74.30;;;;;;4975049;28;20481;-70
2022/07/23 16:51:39;;;;;;;10.10;9.30;;;29.70;74.40;;;;;;4974593;28;20511;-70
2022/07/23 16:54:05;;;;;;;9.90;9.00;;;29.50;75.30;;;;;;4974553;28;20462;-72